Leonore, Illinois
Current Conditions -  °F | °C
As of 7:15 PM on Monday 20 Oct 2014 (Local Time) from KVYS Reporting Station
Broken Clouds Broken Clouds  
Wind Chill: 13°   Ceiling: 5500
Heat Index: 13°   Visibility: 10mi
Dew Point:   Wind: 7mph
Humidity: 65%   Direction: 320°NW
Pressure: 29.97"   Gusts: NA
Location:  41.19°N, 88.98°W
Report Text: KVYS 210015Z AUTO 32006KT 10SM BKN055 13/06 A2997 RMK AO2 T01280063
Loading
Personal Weather Stations






























Interactive Weather Map
Tropical Storm Tracking
New forecast layout! Learn more

10-Day Weather Forecast

Advertisements
Track Severe Weather on mobile